sensor_id;sensor_type;location;lat;lon;timestamp;P1;durP1;ratioP1;P2;durP2;ratioP2
7142;SDS011;3613;48.902;9.204;2022-11-23T00:00:27;5.27;;;2.97;;
7142;SDS011;3613;48.902;9.204;2022-11-23T00:02:55;6.07;;;3.00;;
7142;SDS011;3613;48.902;9.204;2022-11-23T00:05:21;6.67;;;3.23;;
7142;SDS011;3613;48.902;9.204;2022-11-23T00:07:50;5.67;;;3.37;;
7142;SDS011;3613;48.902;9.204;2022-11-23T00:10:18;7.73;;;3.60;;
7142;SDS011;3613;48.902;9.204;2022-11-23T00:12:43;7.57;;;4.03;;
7142;SDS011;3613;48.902;9.204;2022-11-23T00:15:10;8.47;;;2.97;;
7142;SDS011;3613;48.902;9.204;2022-11-23T00:17:37;8.50;;;2.83;;
7142;SDS011;3613;48.902;9.204;2022-11-23T00:20:08;8.60;;;3.27;;
7142;SDS011;3613;48.902;9.204;2022-11-23T00:22:34;6.23;;;3.17;;
7142;SDS011;3613;48.902;9.204;2022-11-23T00:25:04;7.67;;;2.93;;
7142;SDS011;3613;48.902;9.204;2022-11-23T00:27:30;5.80;;;2.97;;
7142;SDS011;3613;48.902;9.204;2022-11-23T00:29:56;8.10;;;3.20;;
7142;SDS011;3613;48.902;9.204;2022-11-23T00:32:21;6.07;;;3.00;;
7142;SDS011;3613;48.902;9.204;2022-11-23T00:34:47;7.87;;;3.27;;
7142;SDS011;3613;48.902;9.204;2022-11-23T00:37:12;5.90;;;3.37;;
7142;SDS011;3613;48.902;9.204;2022-11-23T00:39:40;10.90;;;3.50;;
7142;SDS011;3613;48.902;9.204;2022-11-23T00:42:06;9.27;;;3.27;;
7142;SDS011;3613;48.902;9.204;2022-11-23T00:44:31;6.67;;;2.97;;
7142;SDS011;3613;48.902;9.204;2022-11-23T00:46:57;6.67;;;2.73;;
7142;SDS011;3613;48.902;9.204;2022-11-23T00:49:25;3.50;;;2.83;;
7142;SDS011;3613;48.902;9.204;2022-11-23T00:51:51;6.80;;;3.33;;
7142;SDS011;3613;48.902;9.204;2022-11-23T00:54:18;7.03;;;3.10;;
7142;SDS011;3613;48.902;9.204;2022-11-23T00:56:46;8.37;;;3.67;;
7142;SDS011;3613;48.902;9.204;2022-11-23T00:59:12;7.03;;;3.53;;
7142;SDS011;3613;48.902;9.204;2022-11-23T01:01:37;7.80;;;3.63;;
7142;SDS011;3613;48.902;9.204;2022-11-23T01:04:04;7.77;;;3.60;;
7142;SDS011;3613;48.902;9.204;2022-11-23T01:06:34;8.40;;;3.97;;
7142;SDS011;3613;48.902;9.204;2022-11-23T01:09:09;6.73;;;3.17;;
7142;SDS011;3613;48.902;9.204;2022-11-23T01:11:38;7.03;;;3.47;;
7142;SDS011;3613;48.902;9.204;2022-11-23T01:14:04;6.47;;;3.13;;
7142;SDS011;3613;48.902;9.204;2022-11-23T01:16:31;6.40;;;2.90;;
7142;SDS011;3613;48.902;9.204;2022-11-23T01:19:00;4.60;;;3.17;;
7142;SDS011;3613;48.902;9.204;2022-11-23T01:21:28;8.23;;;3.13;;
7142;SDS011;3613;48.902;9.204;2022-11-23T01:23:55;6.70;;;2.80;;
7142;SDS011;3613;48.902;9.204;2022-11-23T01:26:22;7.30;;;2.90;;
7142;SDS011;3613;48.902;9.204;2022-11-23T01:28:48;5.97;;;2.90;;
7142;SDS011;3613;48.902;9.204;2022-11-23T01:31:17;5.33;;;2.93;;
7142;SDS011;3613;48.902;9.204;2022-11-23T01:33:45;3.40;;;2.40;;
7142;SDS011;3613;48.902;9.204;2022-11-23T01:36:11;4.70;;;3.03;;
7142;SDS011;3613;48.902;9.204;2022-11-23T01:38:40;5.67;;;2.97;;
7142;SDS011;3613;48.902;9.204;2022-11-23T01:41:07;5.67;;;2.77;;
7142;SDS011;3613;48.902;9.204;2022-11-23T01:43:36;6.77;;;3.20;;
7142;SDS011;3613;48.902;9.204;2022-11-23T01:46:02;7.17;;;2.67;;
7142;SDS011;3613;48.902;9.204;2022-11-23T01:48:48;6.13;;;3.13;;
7142;SDS011;3613;48.902;9.204;2022-11-23T01:51:38;6.17;;;2.87;;
7142;SDS011;3613;48.902;9.204;2022-11-23T01:54:07;7.50;;;3.00;;
7142;SDS011;3613;48.902;9.204;2022-11-23T01:56:40;5.83;;;2.83;;
7142;SDS011;3613;48.902;9.204;2022-11-23T01:59:13;7.20;;;2.93;;
7142;SDS011;3613;48.902;9.204;2022-11-23T02:01:43;7.70;;;2.70;;
7142;SDS011;3613;48.902;9.204;2022-11-23T02:04:10;7.10;;;3.03;;
7142;SDS011;3613;48.902;9.204;2022-11-23T02:06:40;6.87;;;3.33;;
7142;SDS011;3613;48.902;9.204;2022-11-23T02:09:11;4.27;;;3.07;;
7142;SDS011;3613;48.902;9.204;2022-11-23T02:11:37;7.33;;;3.47;;
7142;SDS011;3613;48.902;9.204;2022-11-23T02:14:05;6.53;;;3.03;;
7142;SDS011;3613;48.902;9.204;2022-11-23T02:16:31;6.43;;;3.73;;
7142;SDS011;3613;48.902;9.204;2022-11-23T02:19:00;9.30;;;4.33;;
7142;SDS011;3613;48.902;9.204;2022-11-23T02:21:25;5.37;;;3.37;;
7142;SDS011;3613;48.902;9.204;2022-11-23T02:24:00;10.37;;;3.20;;
7142;SDS011;3613;48.902;9.204;2022-11-23T02:26:36;4.50;;;3.23;;
7142;SDS011;3613;48.902;9.204;2022-11-23T02:29:15;6.10;;;3.37;;
7142;SDS011;3613;48.902;9.204;2022-11-23T02:31:47;6.30;;;3.40;;
7142;SDS011;3613;48.902;9.204;2022-11-23T02:34:13;11.97;;;3.40;;
7142;SDS011;3613;48.902;9.204;2022-11-23T02:41:45;4.73;;;3.23;;
7142;SDS011;3613;48.902;9.204;2022-11-23T02:47:16;5.80;;;3.30;;
7142;SDS011;3613;48.902;9.204;2022-11-23T02:49:44;8.20;;;3.30;;
7142;SDS011;3613;48.902;9.204;2022-11-23T02:52:11;6.40;;;3.03;;
7142;SDS011;3613;48.902;9.204;2022-11-23T02:54:40;7.53;;;3.37;;
7142;SDS011;3613;48.902;9.204;2022-11-23T02:57:06;6.33;;;3.23;;
7142;SDS011;3613;48.902;9.204;2022-11-23T02:59:34;6.20;;;3.17;;
7142;SDS011;3613;48.902;9.204;2022-11-23T03:02:01;9.37;;;3.27;;
7142;SDS011;3613;48.902;9.204;2022-11-23T03:04:28;6.17;;;2.90;;
7142;SDS011;3613;48.902;9.204;2022-11-23T03:06:54;10.10;;;3.60;;
7142;SDS011;3613;48.902;9.204;2022-11-23T03:09:20;5.77;;;3.07;;
7142;SDS011;3613;48.902;9.204;2022-11-23T03:11:50;5.53;;;3.00;;
7142;SDS011;3613;48.902;9.204;2022-11-23T03:14:16;6.60;;;2.90;;
7142;SDS011;3613;48.902;9.204;2022-11-23T03:16:41;7.27;;;2.63;;
7142;SDS011;3613;48.902;9.204;2022-11-23T03:19:07;9.43;;;3.20;;
7142;SDS011;3613;48.902;9.204;2022-11-23T03:21:32;7.57;;;3.00;;
7142;SDS011;3613;48.902;9.204;2022-11-23T03:23:58;5.33;;;3.03;;
7142;SDS011;3613;48.902;9.204;2022-11-23T03:26:24;7.77;;;2.77;;
7142;SDS011;3613;48.902;9.204;2022-11-23T03:28:52;6.23;;;3.30;;
7142;SDS011;3613;48.902;9.204;2022-11-23T03:31:18;7.40;;;3.67;;
7142;SDS011;3613;48.902;9.204;2022-11-23T03:33:43;8.10;;;3.00;;
7142;SDS011;3613;48.902;9.204;2022-11-23T03:36:09;7.87;;;3.10;;
7142;SDS011;3613;48.902;9.204;2022-11-23T03:38:34;8.13;;;3.37;;
7142;SDS011;3613;48.902;9.204;2022-11-23T03:41:02;3.23;;;2.67;;
7142;SDS011;3613;48.902;9.204;2022-11-23T03:43:28;6.73;;;3.20;;
7142;SDS011;3613;48.902;9.204;2022-11-23T03:45:53;5.43;;;3.33;;
7142;SDS011;3613;48.902;9.204;2022-11-23T03:48:19;4.70;;;3.03;;
7142;SDS011;3613;48.902;9.204;2022-11-23T03:50:44;7.60;;;3.20;;
7142;SDS011;3613;48.902;9.204;2022-11-23T03:53:10;4.97;;;3.07;;
7142;SDS011;3613;48.902;9.204;2022-11-23T03:55:36;8.13;;;3.27;;
7142;SDS011;3613;48.902;9.204;2022-11-23T03:58:02;6.87;;;3.50;;
7142;SDS011;3613;48.902;9.204;2022-11-23T04:00:28;8.33;;;3.20;;
7142;SDS011;3613;48.902;9.204;2022-11-23T04:02:55;5.57;;;2.93;;
7142;SDS011;3613;48.902;9.204;2022-11-23T04:05:23;5.27;;;3.10;;
7142;SDS011;3613;48.902;9.204;2022-11-23T04:07:49;6.63;;;2.67;;
7142;SDS011;3613;48.902;9.204;2022-11-23T04:10:15;5.67;;;2.80;;
7142;SDS011;3613;48.902;9.204;2022-11-23T04:12:42;5.27;;;2.77;;
7142;SDS011;3613;48.902;9.204;2022-11-23T04:15:08;9.73;;;3.03;;
7142;SDS011;3613;48.902;9.204;2022-11-23T04:17:34;5.10;;;2.53;;
7142;SDS011;3613;48.902;9.204;2022-11-23T04:19:59;5.40;;;3.13;;
7142;SDS011;3613;48.902;9.204;2022-11-23T04:22:25;6.27;;;3.37;;
7142;SDS011;3613;48.902;9.204;2022-11-23T04:24:51;4.53;;;2.97;;
7142;SDS011;3613;48.902;9.204;2022-11-23T04:27:16;4.90;;;2.60;;
7142;SDS011;3613;48.902;9.204;2022-11-23T04:29:44;7.63;;;2.90;;
7142;SDS011;3613;48.902;9.204;2022-11-23T04:32:10;5.13;;;2.57;;
7142;SDS011;3613;48.902;9.204;2022-11-23T04:34:35;5.40;;;2.63;;
7142;SDS011;3613;48.902;9.204;2022-11-23T04:37:03;5.03;;;2.47;;
7142;SDS011;3613;48.902;9.204;2022-11-23T04:39:31;6.07;;;2.57;;
7142;SDS011;3613;48.902;9.204;2022-11-23T04:41:57;6.97;;;2.83;;
7142;SDS011;3613;48.902;9.204;2022-11-23T04:44:25;6.80;;;2.60;;
7142;SDS011;3613;48.902;9.204;2022-11-23T04:46:53;5.30;;;2.50;;
7142;SDS011;3613;48.902;9.204;2022-11-23T04:49:18;4.87;;;2.80;;
7142;SDS011;3613;48.902;9.204;2022-11-23T04:51:44;4.83;;;3.00;;
7142;SDS011;3613;48.902;9.204;2022-11-23T04:54:09;4.97;;;2.50;;
7142;SDS011;3613;48.902;9.204;2022-11-23T04:56:35;5.93;;;2.27;;
7142;SDS011;3613;48.902;9.204;2022-11-23T04:59:01;5.00;;;2.70;;
7142;SDS011;3613;48.902;9.204;2022-11-23T05:01:26;8.50;;;2.67;;
7142;SDS011;3613;48.902;9.204;2022-11-23T05:03:52;6.03;;;2.10;;
7142;SDS011;3613;48.902;9.204;2022-11-23T05:06:17;5.13;;;2.00;;
7142;SDS011;3613;48.902;9.204;2022-11-23T05:08:43;8.20;;;2.77;;
7142;SDS011;3613;48.902;9.204;2022-11-23T05:11:09;5.30;;;2.87;;
7142;SDS011;3613;48.902;9.204;2022-11-23T05:13:34;6.87;;;3.23;;
7142;SDS011;3613;48.902;9.204;2022-11-23T05:16:00;7.47;;;3.17;;
7142;SDS011;3613;48.902;9.204;2022-11-23T05:18:25;4.57;;;2.23;;
7142;SDS011;3613;48.902;9.204;2022-11-23T05:20:51;3.57;;;1.90;;
7142;SDS011;3613;48.902;9.204;2022-11-23T05:23:17;5.33;;;2.87;;
7142;SDS011;3613;48.902;9.204;2022-11-23T05:25:42;4.10;;;2.10;;
7142;SDS011;3613;48.902;9.204;2022-11-23T05:28:13;3.50;;;2.20;;
7142;SDS011;3613;48.902;9.204;2022-11-23T05:30:40;4.33;;;2.30;;
7142;SDS011;3613;48.902;9.204;2022-11-23T05:33:06;9.53;;;3.60;;
7142;SDS011;3613;48.902;9.204;2022-11-23T05:35:32;7.10;;;3.23;;
7142;SDS011;3613;48.902;9.204;2022-11-23T05:37:58;3.83;;;2.40;;
7142;SDS011;3613;48.902;9.204;2022-11-23T05:40:24;5.00;;;2.60;;
7142;SDS011;3613;48.902;9.204;2022-11-23T05:42:54;6.33;;;2.80;;
7142;SDS011;3613;48.902;9.204;2022-11-23T05:45:20;3.53;;;2.37;;
7142;SDS011;3613;48.902;9.204;2022-11-23T05:47:49;4.27;;;2.60;;
7142;SDS011;3613;48.902;9.204;2022-11-23T05:50:16;6.03;;;2.40;;
7142;SDS011;3613;48.902;9.204;2022-11-23T05:52:42;6.43;;;3.00;;
7142;SDS011;3613;48.902;9.204;2022-11-23T05:55:07;6.00;;;2.33;;
7142;SDS011;3613;48.902;9.204;2022-11-23T05:57:35;7.27;;;3.17;;
7142;SDS011;3613;48.902;9.204;2022-11-23T06:00:01;4.40;;;2.37;;
7142;SDS011;3613;48.902;9.204;2022-11-23T06:02:28;3.97;;;2.63;;
7142;SDS011;3613;48.902;9.204;2022-11-23T06:04:54;4.97;;;2.53;;
7142;SDS011;3613;48.902;9.204;2022-11-23T06:07:19;4.53;;;2.97;;
7142;SDS011;3613;48.902;9.204;2022-11-23T06:09:45;8.00;;;2.70;;
7142;SDS011;3613;48.902;9.204;2022-11-23T06:12:13;3.63;;;2.17;;
7142;SDS011;3613;48.902;9.204;2022-11-23T06:14:38;6.87;;;3.10;;
7142;SDS011;3613;48.902;9.204;2022-11-23T06:17:04;6.43;;;2.80;;
7142;SDS011;3613;48.902;9.204;2022-11-23T06:19:30;9.93;;;3.43;;
7142;SDS011;3613;48.902;9.204;2022-11-23T06:21:58;5.17;;;2.90;;
7142;SDS011;3613;48.902;9.204;2022-11-23T06:24:23;7.63;;;3.00;;
7142;SDS011;3613;48.902;9.204;2022-11-23T06:26:49;5.77;;;3.37;;
7142;SDS011;3613;48.902;9.204;2022-11-23T06:29:16;9.07;;;3.53;;
7142;SDS011;3613;48.902;9.204;2022-11-23T06:31:43;6.83;;;2.97;;
7142;SDS011;3613;48.902;9.204;2022-11-23T06:34:09;8.87;;;3.67;;
7142;SDS011;3613;48.902;9.204;2022-11-23T06:36:35;6.70;;;2.90;;
7142;SDS011;3613;48.902;9.204;2022-11-23T06:39:00;5.83;;;3.03;;
7142;SDS011;3613;48.902;9.204;2022-11-23T06:41:26;11.47;;;3.30;;
7142;SDS011;3613;48.902;9.204;2022-11-23T06:43:51;7.07;;;2.93;;
7142;SDS011;3613;48.902;9.204;2022-11-23T06:46:19;6.67;;;2.53;;
7142;SDS011;3613;48.902;9.204;2022-11-23T06:48:45;8.53;;;3.40;;
7142;SDS011;3613;48.902;9.204;2022-11-23T06:51:12;7.50;;;3.00;;
7142;SDS011;3613;48.902;9.204;2022-11-23T06:53:40;5.90;;;3.00;;
7142;SDS011;3613;48.902;9.204;2022-11-23T06:56:06;8.00;;;3.00;;
7142;SDS011;3613;48.902;9.204;2022-11-23T06:58:34;6.73;;;3.10;;
7142;SDS011;3613;48.902;9.204;2022-11-23T07:01:03;6.57;;;2.60;;
7142;SDS011;3613;48.902;9.204;2022-11-23T07:03:30;5.30;;;2.47;;
7142;SDS011;3613;48.902;9.204;2022-11-23T07:05:56;5.90;;;2.73;;
7142;SDS011;3613;48.902;9.204;2022-11-23T07:08:22;5.83;;;3.17;;
7142;SDS011;3613;48.902;9.204;2022-11-23T07:10:47;6.03;;;3.13;;
7142;SDS011;3613;48.902;9.204;2022-11-23T07:13:13;7.27;;;3.10;;
7142;SDS011;3613;48.902;9.204;2022-11-23T07:15:40;12.40;;;3.47;;
7142;SDS011;3613;48.902;9.204;2022-11-23T07:18:06;8.30;;;3.40;;
7142;SDS011;3613;48.902;9.204;2022-11-23T07:20:33;7.17;;;3.20;;
7142;SDS011;3613;48.902;9.204;2022-11-23T07:25:28;7.40;;;2.80;;
7142;SDS011;3613;48.902;9.204;2022-11-23T07:27:57;4.93;;;3.10;;
7142;SDS011;3613;48.902;9.204;2022-11-23T07:30:24;6.77;;;3.33;;
7142;SDS011;3613;48.902;9.204;2022-11-23T07:32:50;11.70;;;3.70;;
7142;SDS011;3613;48.902;9.204;2022-11-23T07:35:17;6.53;;;3.00;;
7142;SDS011;3613;48.902;9.204;2022-11-23T07:37:44;6.07;;;3.00;;
7142;SDS011;3613;48.902;9.204;2022-11-23T07:40:10;7.27;;;3.87;;
7142;SDS011;3613;48.902;9.204;2022-11-23T07:42:35;6.90;;;3.17;;
7142;SDS011;3613;48.902;9.204;2022-11-23T07:45:02;4.80;;;3.43;;
7142;SDS011;3613;48.902;9.204;2022-11-23T07:47:29;6.83;;;3.50;;
7142;SDS011;3613;48.902;9.204;2022-11-23T07:49:55;7.67;;;3.27;;
7142;SDS011;3613;48.902;9.204;2022-11-23T07:52:23;7.70;;;3.40;;
7142;SDS011;3613;48.902;9.204;2022-11-23T07:54:49;5.43;;;3.37;;
7142;SDS011;3613;48.902;9.204;2022-11-23T07:57:14;7.10;;;3.40;;
7142;SDS011;3613;48.902;9.204;2022-11-23T07:59:40;11.00;;;3.73;;
7142;SDS011;3613;48.902;9.204;2022-11-23T08:02:07;6.43;;;3.47;;
7142;SDS011;3613;48.902;9.204;2022-11-23T08:04:36;7.80;;;3.10;;
7142;SDS011;3613;48.902;9.204;2022-11-23T08:07:01;5.30;;;2.73;;
7142;SDS011;3613;48.902;9.204;2022-11-23T08:09:29;6.00;;;2.90;;
7142;SDS011;3613;48.902;9.204;2022-11-23T08:11:57;5.80;;;3.07;;
7142;SDS011;3613;48.902;9.204;2022-11-23T08:14:23;8.33;;;3.10;;
7142;SDS011;3613;48.902;9.204;2022-11-23T08:16:49;5.20;;;3.00;;
7142;SDS011;3613;48.902;9.204;2022-11-23T08:19:15;6.50;;;2.80;;
7142;SDS011;3613;48.902;9.204;2022-11-23T08:21:41;7.00;;;3.63;;
7142;SDS011;3613;48.902;9.204;2022-11-23T08:24:07;8.57;;;2.90;;
7142;SDS011;3613;48.902;9.204;2022-11-23T08:26:32;7.47;;;3.40;;
7142;SDS011;3613;48.902;9.204;2022-11-23T08:28:58;4.37;;;2.40;;
7142;SDS011;3613;48.902;9.204;2022-11-23T08:31:24;4.43;;;2.17;;
7142;SDS011;3613;48.902;9.204;2022-11-23T08:33:49;4.17;;;2.57;;
7142;SDS011;3613;48.902;9.204;2022-11-23T08:36:17;10.47;;;2.37;;
7142;SDS011;3613;48.902;9.204;2022-11-23T08:38:46;5.80;;;2.40;;
7142;SDS011;3613;48.902;9.204;2022-11-23T08:41:15;4.10;;;2.73;;
7142;SDS011;3613;48.902;9.204;2022-11-23T08:43:44;6.10;;;2.67;;
7142;SDS011;3613;48.902;9.204;2022-11-23T08:46:13;3.30;;;2.47;;
7142;SDS011;3613;48.902;9.204;2022-11-23T08:48:39;6.43;;;2.57;;
7142;SDS011;3613;48.902;9.204;2022-11-23T08:51:05;9.77;;;2.50;;
7142;SDS011;3613;48.902;9.204;2022-11-23T08:53:31;6.87;;;2.53;;
7142;SDS011;3613;48.902;9.204;2022-11-23T08:56:03;4.37;;;2.33;;
7142;SDS011;3613;48.902;9.204;2022-11-23T08:58:32;4.20;;;2.30;;
7142;SDS011;3613;48.902;9.204;2022-11-23T09:00:58;4.70;;;2.27;;
7142;SDS011;3613;48.902;9.204;2022-11-23T09:03:24;4.87;;;2.23;;
7142;SDS011;3613;48.902;9.204;2022-11-23T09:05:49;9.70;;;2.80;;
7142;SDS011;3613;48.902;9.204;2022-11-23T09:08:15;5.90;;;2.50;;
7142;SDS011;3613;48.902;9.204;2022-11-23T09:10:41;6.17;;;2.37;;
7142;SDS011;3613;48.902;9.204;2022-11-23T09:13:08;7.90;;;3.07;;
7142;SDS011;3613;48.902;9.204;2022-11-23T09:15:33;4.70;;;2.30;;
7142;SDS011;3613;48.902;9.204;2022-11-23T09:18:02;5.33;;;3.03;;
7142;SDS011;3613;48.902;9.204;2022-11-23T09:20:27;5.00;;;2.57;;
7142;SDS011;3613;48.902;9.204;2022-11-23T09:22:55;4.90;;;2.17;;
7142;SDS011;3613;48.902;9.204;2022-11-23T09:25:24;7.27;;;2.57;;
7142;SDS011;3613;48.902;9.204;2022-11-23T09:27:54;6.20;;;2.83;;
7142;SDS011;3613;48.902;9.204;2022-11-23T09:30:24;3.93;;;2.40;;
7142;SDS011;3613;48.902;9.204;2022-11-23T09:32:51;6.77;;;2.87;;
7142;SDS011;3613;48.902;9.204;2022-11-23T09:35:18;5.83;;;2.40;;
7142;SDS011;3613;48.902;9.204;2022-11-23T09:37:44;7.93;;;2.13;;
7142;SDS011;3613;48.902;9.204;2022-11-23T09:40:13;5.13;;;2.23;;
7142;SDS011;3613;48.902;9.204;2022-11-23T09:42:49;5.83;;;2.53;;
7142;SDS011;3613;48.902;9.204;2022-11-23T09:50:56;7.50;;;3.00;;
7142;SDS011;3613;48.902;9.204;2022-11-23T09:56:11;4.40;;;2.30;;
7142;SDS011;3613;48.902;9.204;2022-11-23T09:59:10;7.63;;;2.77;;
7142;SDS011;3613;48.902;9.204;2022-11-23T10:01:41;7.07;;;2.30;;
7142;SDS011;3613;48.902;9.204;2022-11-23T10:04:08;6.80;;;2.90;;
7142;SDS011;3613;48.902;9.204;2022-11-23T10:06:41;3.67;;;2.40;;
7142;SDS011;3613;48.902;9.204;2022-11-23T10:09:18;5.30;;;2.10;;
7142;SDS011;3613;48.902;9.204;2022-11-23T10:19:44;9.17;;;2.40;;
7142;SDS011;3613;48.902;9.204;2022-11-23T10:22:19;5.13;;;2.30;;
7142;SDS011;3613;48.902;9.204;2022-11-23T10:24:51;5.37;;;2.10;;
7142;SDS011;3613;48.902;9.204;2022-11-23T10:27:28;4.70;;;2.47;;
7142;SDS011;3613;48.902;9.204;2022-11-23T10:29:57;4.77;;;2.60;;
7142;SDS011;3613;48.902;9.204;2022-11-23T10:32:25;5.30;;;2.20;;
7142;SDS011;3613;48.902;9.204;2022-11-23T10:35:13;5.70;;;2.93;;
7142;SDS011;3613;48.902;9.204;2022-11-23T10:37:39;5.13;;;2.43;;
7142;SDS011;3613;48.902;9.204;2022-11-23T10:40:14;6.67;;;2.67;;
7142;SDS011;3613;48.902;9.204;2022-11-23T10:42:52;5.93;;;2.40;;
7142;SDS011;3613;48.902;9.204;2022-11-23T10:45:25;6.03;;;2.90;;
7142;SDS011;3613;48.902;9.204;2022-11-23T10:47:57;5.37;;;2.43;;
7142;SDS011;3613;48.902;9.204;2022-11-23T10:55:44;4.10;;;2.17;;
7142;SDS011;3613;48.902;9.204;2022-11-23T10:58:22;7.43;;;2.43;;
7142;SDS011;3613;48.902;9.204;2022-11-23T11:01:15;5.47;;;2.73;;
7142;SDS011;3613;48.902;9.204;2022-11-23T11:03:52;4.37;;;2.27;;
7142;SDS011;3613;48.902;9.204;2022-11-23T11:06:29;7.97;;;2.43;;
7142;SDS011;3613;48.902;9.204;2022-11-23T11:09:04;6.27;;;3.03;;
7142;SDS011;3613;48.902;9.204;2022-11-23T11:11:46;4.47;;;2.10;;
7142;SDS011;3613;48.902;9.204;2022-11-23T11:14:17;8.43;;;2.27;;
7142;SDS011;3613;48.902;9.204;2022-11-23T11:21:58;3.90;;;2.53;;
7142;SDS011;3613;48.902;9.204;2022-11-23T11:32:14;4.60;;;3.10;;
7142;SDS011;3613;48.902;9.204;2022-11-23T11:34:51;6.97;;;2.40;;
7142;SDS011;3613;48.902;9.204;2022-11-23T11:39:55;4.80;;;2.43;;
7142;SDS011;3613;48.902;9.204;2022-11-23T11:45:06;4.60;;;2.10;;
7142;SDS011;3613;48.902;9.204;2022-11-23T11:47:44;4.10;;;2.10;;
7142;SDS011;3613;48.902;9.204;2022-11-23T11:50:17;4.63;;;2.50;;
7142;SDS011;3613;48.902;9.204;2022-11-23T11:52:48;3.83;;;2.00;;
7142;SDS011;3613;48.902;9.204;2022-11-23T11:55:25;4.90;;;2.30;;
7142;SDS011;3613;48.902;9.204;2022-11-23T11:58:01;3.83;;;2.03;;
7142;SDS011;3613;48.902;9.204;2022-11-23T12:00:34;7.43;;;2.27;;
7142;SDS011;3613;48.902;9.204;2022-11-23T12:08:10;4.63;;;1.87;;
7142;SDS011;3613;48.902;9.204;2022-11-23T12:10:39;4.87;;;2.10;;
7142;SDS011;3613;48.902;9.204;2022-11-23T12:13:17;3.20;;;1.87;;
7142;SDS011;3613;48.902;9.204;2022-11-23T12:15:46;4.63;;;2.13;;
7142;SDS011;3613;48.902;9.204;2022-11-23T12:18:23;4.80;;;1.83;;
7142;SDS011;3613;48.902;9.204;2022-11-23T12:21:02;3.57;;;2.03;;
7142;SDS011;3613;48.902;9.204;2022-11-23T12:23:35;5.73;;;1.83;;
7142;SDS011;3613;48.902;9.204;2022-11-23T12:35:19;2.43;;;1.50;;
7142;SDS011;3613;48.902;9.204;2022-11-23T12:38:23;5.70;;;2.23;;
7142;SDS011;3613;48.902;9.204;2022-11-23T12:41:14;2.50;;;1.70;;
7142;SDS011;3613;48.902;9.204;2022-11-23T12:46:37;1.97;;;1.60;;
7142;SDS011;3613;48.902;9.204;2022-11-23T13:00:36;2.00;;;1.50;;
7142;SDS011;3613;48.902;9.204;2022-11-23T13:22:39;3.17;;;1.53;;
7142;SDS011;3613;48.902;9.204;2022-11-23T13:25:17;3.37;;;1.40;;
7142;SDS011;3613;48.902;9.204;2022-11-23T13:32:57;2.90;;;1.57;;
7142;SDS011;3613;48.902;9.204;2022-11-23T13:40:38;2.50;;;1.30;;
7142;SDS011;3613;48.902;9.204;2022-11-23T13:48:45;3.23;;;1.70;;
7142;SDS011;3613;48.902;9.204;2022-11-23T13:51:12;3.40;;;1.60;;
7142;SDS011;3613;48.902;9.204;2022-11-23T13:53:50;2.57;;;1.60;;
7142;SDS011;3613;48.902;9.204;2022-11-23T13:58:59;2.77;;;1.80;;
7142;SDS011;3613;48.902;9.204;2022-11-23T14:04:33;2.83;;;1.40;;
7142;SDS011;3613;48.902;9.204;2022-11-23T14:09:37;3.77;;;1.80;;
7142;SDS011;3613;48.902;9.204;2022-11-23T14:12:23;4.87;;;1.60;;
7142;SDS011;3613;48.902;9.204;2022-11-23T14:17:49;2.67;;;1.40;;
7142;SDS011;3613;48.902;9.204;2022-11-23T14:41:16;2.67;;;1.60;;
7142;SDS011;3613;48.902;9.204;2022-11-23T14:43:26;2.53;;;1.60;;
7142;SDS011;3613;48.902;9.204;2022-11-23T14:45:53;2.50;;;1.20;;
7142;SDS011;3613;48.902;9.204;2022-11-23T14:48:27;3.30;;;1.57;;
7142;SDS011;3613;48.902;9.204;2022-11-23T14:53:29;4.27;;;1.43;;
7142;SDS011;3613;48.902;9.204;2022-11-23T14:55:59;3.30;;;2.00;;
7142;SDS011;3613;48.902;9.204;2022-11-23T14:58:29;3.13;;;1.47;;
7142;SDS011;3613;48.902;9.204;2022-11-23T15:00:59;2.93;;;2.00;;
7142;SDS011;3613;48.902;9.204;2022-11-23T15:03:27;3.27;;;1.83;;
7142;SDS011;3613;48.902;9.204;2022-11-23T15:06:02;2.97;;;1.60;;
7142;SDS011;3613;48.902;9.204;2022-11-23T15:11:25;3.50;;;1.70;;
7142;SDS011;3613;48.902;9.204;2022-11-23T15:13:53;3.73;;;1.70;;
7142;SDS011;3613;48.902;9.204;2022-11-23T15:16:19;4.87;;;2.07;;
7142;SDS011;3613;48.902;9.204;2022-11-23T15:18:46;5.80;;;1.83;;
7142;SDS011;3613;48.902;9.204;2022-11-23T15:21:22;3.53;;;1.70;;
7142;SDS011;3613;48.902;9.204;2022-11-23T15:23:55;3.47;;;1.50;;
7142;SDS011;3613;48.902;9.204;2022-11-23T15:26:30;4.13;;;1.93;;
7142;SDS011;3613;48.902;9.204;2022-11-23T15:28:58;2.90;;;2.03;;
7142;SDS011;3613;48.902;9.204;2022-11-23T15:31:28;4.53;;;1.87;;
7142;SDS011;3613;48.902;9.204;2022-11-23T15:34:03;3.60;;;1.83;;
7142;SDS011;3613;48.902;9.204;2022-11-23T15:36:36;4.53;;;1.90;;
7142;SDS011;3613;48.902;9.204;2022-11-23T15:39:03;4.57;;;2.30;;
7142;SDS011;3613;48.902;9.204;2022-11-23T15:41:33;4.13;;;2.10;;
7142;SDS011;3613;48.902;9.204;2022-11-23T15:44:01;5.20;;;2.20;;
7142;SDS011;3613;48.902;9.204;2022-11-23T15:46:43;3.33;;;1.87;;
7142;SDS011;3613;48.902;9.204;2022-11-23T15:49:11;3.40;;;2.37;;
7142;SDS011;3613;48.902;9.204;2022-11-23T15:51:41;4.73;;;2.37;;
7142;SDS011;3613;48.902;9.204;2022-11-23T15:54:21;4.00;;;1.80;;
7142;SDS011;3613;48.902;9.204;2022-11-23T15:56:52;3.10;;;1.97;;
7142;SDS011;3613;48.902;9.204;2022-11-23T16:02:15;3.23;;;2.20;;
7142;SDS011;3613;48.902;9.204;2022-11-23T16:04:45;5.17;;;2.10;;
7142;SDS011;3613;48.902;9.204;2022-11-23T16:07:20;4.27;;;2.50;;
7142;SDS011;3613;48.902;9.204;2022-11-23T16:10:05;6.43;;;2.53;;
7142;SDS011;3613;48.902;9.204;2022-11-23T16:12:50;9.20;;;2.50;;
7142;SDS011;3613;48.902;9.204;2022-11-23T16:17:56;5.57;;;2.40;;
7142;SDS011;3613;48.902;9.204;2022-11-23T16:20:28;3.33;;;2.30;;
7142;SDS011;3613;48.902;9.204;2022-11-23T16:22:59;6.20;;;2.27;;
7142;SDS011;3613;48.902;9.204;2022-11-23T16:25:27;5.20;;;2.40;;
7142;SDS011;3613;48.902;9.204;2022-11-23T16:30:42;5.93;;;2.60;;
7142;SDS011;3613;48.902;9.204;2022-11-23T16:33:13;5.97;;;2.53;;
7142;SDS011;3613;48.902;9.204;2022-11-23T16:35:42;3.17;;;2.60;;
7142;SDS011;3613;48.902;9.204;2022-11-23T16:38:11;5.37;;;2.47;;
7142;SDS011;3613;48.902;9.204;2022-11-23T16:40:36;5.93;;;2.87;;
7142;SDS011;3613;48.902;9.204;2022-11-23T16:43:04;6.57;;;3.83;;
7142;SDS011;3613;48.902;9.204;2022-11-23T16:45:36;5.00;;;2.60;;
7142;SDS011;3613;48.902;9.204;2022-11-23T16:48:04;7.93;;;2.80;;
7142;SDS011;3613;48.902;9.204;2022-11-23T16:50:49;3.67;;;2.57;;
7142;SDS011;3613;48.902;9.204;2022-11-23T16:53:18;3.93;;;2.63;;
7142;SDS011;3613;48.902;9.204;2022-11-23T16:55:49;5.60;;;3.17;;
7142;SDS011;3613;48.902;9.204;2022-11-23T16:58:20;9.17;;;3.60;;
7142;SDS011;3613;48.902;9.204;2022-11-23T17:00:47;5.53;;;3.30;;
7142;SDS011;3613;48.902;9.204;2022-11-23T17:03:15;6.17;;;3.10;;
7142;SDS011;3613;48.902;9.204;2022-11-23T17:05:42;4.17;;;2.93;;
7142;SDS011;3613;48.902;9.204;2022-11-23T17:08:11;5.03;;;2.67;;
7142;SDS011;3613;48.902;9.204;2022-11-23T17:10:37;4.43;;;2.90;;
7142;SDS011;3613;48.902;9.204;2022-11-23T17:13:04;5.33;;;2.90;;
7142;SDS011;3613;48.902;9.204;2022-11-23T17:15:36;4.53;;;3.13;;
7142;SDS011;3613;48.902;9.204;2022-11-23T17:18:02;4.43;;;2.50;;
7142;SDS011;3613;48.902;9.204;2022-11-23T17:20:28;6.90;;;3.30;;
7142;SDS011;3613;48.902;9.204;2022-11-23T17:22:58;5.27;;;2.80;;
7142;SDS011;3613;48.902;9.204;2022-11-23T17:25:25;9.63;;;5.40;;
7142;SDS011;3613;48.902;9.204;2022-11-23T17:27:54;5.57;;;3.33;;
7142;SDS011;3613;48.902;9.204;2022-11-23T17:30:20;7.03;;;3.93;;
7142;SDS011;3613;48.902;9.204;2022-11-23T17:32:46;6.07;;;3.23;;
7142;SDS011;3613;48.902;9.204;2022-11-23T17:35:13;5.87;;;2.30;;
7142;SDS011;3613;48.902;9.204;2022-11-23T17:37:40;9.17;;;3.30;;
7142;SDS011;3613;48.902;9.204;2022-11-23T17:40:16;8.13;;;4.23;;
7142;SDS011;3613;48.902;9.204;2022-11-23T17:42:43;9.40;;;3.53;;
7142;SDS011;3613;48.902;9.204;2022-11-23T17:45:09;8.40;;;4.37;;
7142;SDS011;3613;48.902;9.204;2022-11-23T17:47:36;12.27;;;5.50;;
7142;SDS011;3613;48.902;9.204;2022-11-23T17:50:02;8.27;;;3.27;;
7142;SDS011;3613;48.902;9.204;2022-11-23T17:52:31;3.10;;;2.20;;
7142;SDS011;3613;48.902;9.204;2022-11-23T17:54:57;3.30;;;2.47;;
7142;SDS011;3613;48.902;9.204;2022-11-23T17:57:23;6.43;;;2.73;;
7142;SDS011;3613;48.902;9.204;2022-11-23T17:59:50;6.07;;;3.37;;
7142;SDS011;3613;48.902;9.204;2022-11-23T18:02:16;7.77;;;3.83;;
7142;SDS011;3613;48.902;9.204;2022-11-23T18:04:45;8.17;;;4.37;;